Time,TemperatureF,DewpointF,PressureIn,WindDirection,WindDirectionDegrees,WindSpeedMPH,WindSpeedGustMPH,Humidity,HourlyPrecipIn,Conditions,Clouds,dailyrainin,SoftwareType,DateUTC
2013-12-03 00:02:00,34.0,-99.9,-100.00,NE,36,2.0,3.0,-999,0.00,,,-99.99,,2013-12-03 05:02:00,
2013-12-03 00:12:00,34.0,-99.9,-100.00,NE,36,2.0,3.0,-999,0.00,,,-99.99,,2013-12-03 05:12:00,
2013-12-03 00:43:00,34.0,-99.9,-100.00,NE,36,2.0,3.0,-999,0.00,,,-99.99,,2013-12-03 05:43:00,
2013-12-03 00:53:00,34.0,-99.9,-100.00,NE,36,2.0,3.0,-999,0.00,,,-99.99,,2013-12-03 05:53:00,
2013-12-03 01:02:00,34.0,-99.9,-100.00,NE,36,2.0,3.0,-999,0.00,,,-99.99,,2013-12-03 06:02:00,
2013-12-03 01:12:00,34.0,-99.9,-100.00,NE,36,2.0,3.0,-999,0.00,,,-99.99,,2013-12-03 06:12:00,
2013-12-03 01:42:00,38.0,-99.9,-100.00,NNE,19,3.0,4.0,-999,0.00,,,-99.99,,2013-12-03 06:42:00,
2013-12-03 01:53:00,38.0,-99.9,-100.00,NNE,19,3.0,4.0,-999,0.00,,,-99.99,,2013-12-03 06:53:00,
2013-12-03 02:02:00,38.0,-99.9,-100.00,NNE,19,3.0,4.0,-999,0.00,,,-99.99,,2013-12-03 07:02:00,
2013-12-03 02:13:00,38.0,-99.9,-100.00,NNE,19,3.0,4.0,-999,0.00,,,-99.99,,2013-12-03 07:13:00,
2013-12-03 02:42:00,40.0,-99.9,-100.00,North,11,4.0,5.0,-999,0.00,,,-99.99,,2013-12-03 07:42:00,
2013-12-03 02:52:00,40.0,-99.9,-100.00,North,11,4.0,5.0,-999,0.00,,,-99.99,,2013-12-03 07:52:00,
2013-12-03 03:02:00,40.0,-99.9,-100.00,North,11,4.0,5.0,-999,0.00,,,-99.99,,2013-12-03 08:02:00,
2013-12-03 03:12:00,40.0,-99.9,-100.00,North,11,4.0,5.0,-999,0.00,,,-99.99,,2013-12-03 08:12:00,
2013-12-03 03:42:00,40.0,-99.9,-100.00,North,3,4.0,8.0,-999,-99.99,,,-99.99,,2013-12-03 08:42:00,
2013-12-03 03:53:00,40.0,-99.9,-100.00,North,3,4.0,8.0,-999,-99.99,,,-99.99,,2013-12-03 08:53:00,
2013-12-03 04:02:00,40.0,-99.9,-100.00,North,3,4.0,8.0,-999,-99.99,,,-99.99,,2013-12-03 09:02:00,
2013-12-03 04:11:00,40.0,-99.9,-100.00,North,3,4.0,8.0,-999,-99.99,,,-99.99,,2013-12-03 09:11:00,
2013-12-03 04:43:00,38.0,-99.9,-100.00,North,9,5.0,9.0,-999,0.00,,,-99.99,,2013-12-03 09:43:00,
2013-12-03 04:54:00,38.0,-99.9,-100.00,North,9,5.0,9.0,-999,0.00,,,-99.99,,2013-12-03 09:54:00,
2013-12-03 05:03:00,38.0,-99.9,-100.00,North,9,5.0,9.0,-999,0.00,,,-99.99,,2013-12-03 10:03:00,
2013-12-03 05:13:00,38.0,-99.9,-100.00,North,9,5.0,9.0,-999,0.00,,,-99.99,,2013-12-03 10:13:00,
2013-12-03 05:42:00,36.0,-99.9,-100.00,North,353,6.0,10.0,-999,0.00,,,-99.99,,2013-12-03 10:42:00,
2013-12-03 05:53:00,36.0,-99.9,-100.00,North,353,6.0,10.0,-999,0.00,,,-99.99,,2013-12-03 10:53:00,
2013-12-03 06:03:00,36.0,-99.9,-100.00,North,353,6.0,10.0,-999,0.00,,,-99.99,,2013-12-03 11:03:00,
2013-12-03 06:12:00,36.0,-99.9,-100.00,North,353,6.0,10.0,-999,0.00,,,-99.99,,2013-12-03 11:12:00,
2013-12-03 06:42:00,36.0,-99.9,-100.00,North,6,5.0,8.0,-999,0.00,,,-99.99,,2013-12-03 11:42:00,
2013-12-03 06:52:00,36.0,-99.9,-100.00,North,6,5.0,8.0,-999,0.00,,,-99.99,,2013-12-03 11:52:00,
2013-12-03 07:02:00,36.0,-99.9,-100.00,North,6,5.0,8.0,-999,0.00,,,-99.99,,2013-12-03 12:02:00,
2013-12-03 07:12:00,36.0,-99.9,-100.00,North,6,5.0,8.0,-999,0.00,,,-99.99,,2013-12-03 12:12:00,
2013-12-03 07:42:00,35.0,-99.9,-100.00,North,354,4.0,7.0,-999,0.00,,,-99.99,,2013-12-03 12:42:00,
2013-12-03 07:52:00,35.0,-99.9,-100.00,North,354,4.0,7.0,-999,0.00,,,-99.99,,2013-12-03 12:52:00,
2013-12-03 08:02:00,35.0,-99.9,-100.00,North,354,4.0,7.0,-999,0.00,,,-99.99,,2013-12-03 13:02:00,
2013-12-03 08:11:00,35.0,-99.9,-100.00,North,354,4.0,7.0,-999,0.00,,,-99.99,,2013-12-03 13:11:00,
2013-12-03 08:42:00,36.0,-99.9,-100.00,North,358,5.0,7.0,-999,0.00,,,-99.99,,2013-12-03 13:42:00,
2013-12-03 08:52:00,36.0,-99.9,-100.00,North,358,5.0,7.0,-999,0.00,,,-99.99,,2013-12-03 13:52:00,
2013-12-03 09:02:00,36.0,-99.9,-100.00,North,358,5.0,7.0,-999,0.00,,,-99.99,,2013-12-03 14:02:00,
2013-12-03 09:11:00,36.0,-99.9,-100.00,North,358,5.0,7.0,-999,0.00,,,-99.99,,2013-12-03 14:11:00,
2013-12-03 09:42:00,41.0,-99.9,-100.00,North,359,6.0,8.0,-999,0.00,,,-99.99,,2013-12-03 14:42:00,
2013-12-03 09:52:00,41.0,-99.9,-100.00,North,359,6.0,8.0,-999,0.00,,,-99.99,,2013-12-03 14:52:00,
2013-12-03 10:02:00,41.0,-99.9,-100.00,North,359,6.0,8.0,-999,0.00,,,-99.99,,2013-12-03 15:02:00,
2013-12-03 10:11:00,41.0,-99.9,-100.00,North,359,6.0,8.0,-999,0.00,,,-99.99,,2013-12-03 15:11:00,
2013-12-03 10:44:00,45.0,-99.9,-100.00,North,358,9.0,10.0,-999,-99.99,,,-99.99,,2013-12-03 15:44:00,
2013-12-03 10:54:00,45.0,-99.9,-100.00,North,358,9.0,10.0,-999,-99.99,,,-99.99,,2013-12-03 15:54:00,
2013-12-03 11:04:00,45.0,-99.9,-100.00,North,358,9.0,10.0,-999,-99.99,,,-99.99,,2013-12-03 16:04:00,
2013-12-03 11:13:00,45.0,-99.9,-100.00,North,358,9.0,10.0,-999,-99.99,,,-99.99,,2013-12-03 16:13:00,
2013-12-03 11:43:00,46.0,-99.9,-100.00,NW,317,5.0,8.0,-999,0.00,,,-99.99,,2013-12-03 16:43:00,
2013-12-03 11:53:00,46.0,-99.9,-100.00,NW,317,5.0,8.0,-999,0.00,,,-99.99,,2013-12-03 16:53:00,
2013-12-03 12:02:00,46.0,-99.9,-100.00,NW,317,5.0,8.0,-999,0.00,,,-99.99,,2013-12-03 17:02:00,
2013-12-03 12:12:00,46.0,-99.9,-100.00,NW,317,5.0,8.0,-999,0.00,,,-99.99,,2013-12-03 17:12:00,
2013-12-03 12:42:00,48.0,-99.9,-100.00,NW,311,6.0,10.0,-999,0.00,,,-99.99,,2013-12-03 17:42:00,
2013-12-03 12:53:00,48.0,-99.9,-100.00,NW,311,6.0,10.0,-999,0.00,,,-99.99,,2013-12-03 17:53:00,
2013-12-03 13:02:00,48.0,-99.9,-100.00,NW,311,6.0,10.0,-999,0.00,,,-99.99,,2013-12-03 18:02:00,
2013-12-03 13:12:00,48.0,-99.9,-100.00,NW,311,6.0,10.0,-999,0.00,,,-99.99,,2013-12-03 18:12:00,
2013-12-03 13:53:00,47.0,-99.9,-100.00,WNW,301,9.0,11.0,-999,0.00,,,-99.99,,2013-12-03 18:53:00,
2013-12-03 14:02:00,47.0,-99.9,-100.00,WNW,301,9.0,11.0,-999,0.00,,,-99.99,,2013-12-03 19:02:00,
2013-12-03 14:11:00,47.0,-99.9,-100.00,WNW,301,9.0,11.0,-999,0.00,,,-99.99,,2013-12-03 19:11:00,
2013-12-03 14:42:00,46.0,-99.9,-100.00,WNW,299,7.0,8.0,-999,0.00,,,-99.99,,2013-12-03 19:42:00,
2013-12-03 14:52:00,46.0,-99.9,-100.00,WNW,299,7.0,8.0,-999,0.00,,,-99.99,,2013-12-03 19:52:00,
2013-12-03 15:02:00,46.0,-99.9,-100.00,WNW,299,7.0,8.0,-999,0.00,,,-99.99,,2013-12-03 20:02:00,
2013-12-03 15:11:00,46.0,-99.9,-100.00,WNW,299,7.0,8.0,-999,0.00,,,-99.99,,2013-12-03 20:11:00,
2013-12-03 15:42:00,47.0,-99.9,-100.00,WNW,301,4.0,5.0,-999,0.00,,,0.01,,2013-12-03 20:42:00,
2013-12-03 15:53:00,47.0,-99.9,-100.00,WNW,301,4.0,5.0,-999,0.00,,,0.01,,2013-12-03 20:53:00,
2013-12-03 16:02:00,47.0,-99.9,-100.00,WNW,301,4.0,5.0,-999,0.00,,,0.01,,2013-12-03 21:02:00,
2013-12-03 16:12:00,47.0,-99.9,-100.00,WNW,301,4.0,5.0,-999,0.00,,,0.01,,2013-12-03 21:12:00,
2013-12-03 16:44:00,43.0,-99.9,-100.00,West,279,3.0,4.0,-999,-99.99,,,-99.99,,2013-12-03 21:44:00,
2013-12-03 16:54:00,43.0,-99.9,-100.00,West,279,3.0,4.0,-999,-99.99,,,-99.99,,2013-12-03 21:54:00,
2013-12-03 17:03:00,43.0,-99.9,-100.00,West,279,3.0,4.0,-999,-99.99,,,-99.99,,2013-12-03 22:03:00,
2013-12-03 17:13:00,43.0,-99.9,-100.00,West,279,3.0,4.0,-999,-99.99,,,-99.99,,2013-12-03 22:13:00,
2013-12-03 17:43:00,40.0,-99.9,-100.00,West,269,3.0,4.0,-999,-99.99,,,-99.99,,2013-12-03 22:43:00,
2013-12-03 17:53:00,40.0,-99.9,-100.00,West,269,3.0,4.0,-999,-99.99,,,-99.99,,2013-12-03 22:53:00,
2013-12-03 18:03:00,40.0,-99.9,-100.00,West,269,3.0,4.0,-999,-99.99,,,-99.99,,2013-12-03 23:03:00,
2013-12-03 18:12:00,40.0,-99.9,-100.00,West,269,3.0,4.0,-999,-99.99,,,-99.99,,2013-12-03 23:12:00,
2013-12-03 18:42:00,36.0,-99.9,-100.00,WNW,303,0.0,0.0,-999,-99.99,,,-99.99,,2013-12-03 23:42:00,
2013-12-03 18:52:00,36.0,-99.9,-100.00,WNW,303,0.0,0.0,-999,-99.99,,,-99.99,,2013-12-03 23:52:00,
2013-12-03 19:02:00,36.0,-99.9,-100.00,WNW,303,0.0,0.0,-999,-99.99,,,-99.99,,2013-12-04 00:02:00,
2013-12-03 19:11:00,36.0,-99.9,-100.00,WNW,303,0.0,0.0,-999,-99.99,,,-99.99,,2013-12-04 00:11:00,
2013-12-03 20:12:00,34.0,-99.9,-100.00,WNW,286,1.0,1.0,-999,0.00,,,-99.99,,2013-12-04 01:12:00,
2013-12-03 21:11:00,33.0,-99.9,-100.00,West,273,3.0,3.0,-999,-99.99,,,-99.99,,2013-12-04 02:11:00,
2013-12-03 21:42:00,32.0,-99.9,-100.00,West,272,1.0,4.0,-999,0.00,,,-99.99,,2013-12-04 02:42:00,